Time,TemperatureF,DewpointF,PressureIn,WindDirection,WindDirectionDegrees,WindSpeedMPH,WindSpeedGustMPH,Humidity,HourlyPrecipIn,Conditions,Clouds,dailyrainin,SolarRadiationWatts/m^2,SoftwareType,DateUTC
2013-02-24 00:01:00,41.6,19.1,29.80,SW,216,0.0,4.0,40,0.00,,FEW100,0.00,0.00,VWS V14.01,2013-02-24 07:01:00,
2013-02-24 00:06:00,41.5,19.6,29.81,SSW,200,0.0,3.0,41,0.00,,FEW100,0.00,0.00,VWS V14.01,2013-02-24 07:06:00,
2013-02-24 00:11:00,41.3,19.4,29.81,SSW,194,4.0,6.0,41,0.00,,FEW100,0.00,0.00,VWS V14.01,2013-02-24 07:11:00,
2013-02-24 00:16:00,41.2,19.3,29.81,SSW,213,1.0,4.0,41,0.00,,FEW100,0.00,0.00,VWS V14.01,2013-02-24 07:16:00,
2013-02-24 00:21:00,41.0,19.1,29.81,SSW,213,0.0,1.0,41,0.00,,FEW100,0.00,0.00,VWS V14.01,2013-02-24 07:21:00,
2013-02-24 00:26:00,40.8,19.5,29.81,West,259,2.0,9.0,42,0.00,,FEW100,0.00,0.00,VWS V14.01,2013-02-24 07:26:00,
2013-02-24 00:31:00,40.9,20.1,29.81,WSW,246,5.0,11.0,43,0.00,,FEW100,0.00,0.00,VWS V14.01,2013-02-24 07:31:00,
2013-02-24 00:36:00,41.0,20.2,29.81,WSW,246,7.0,9.0,43,0.00,,FEW100,0.00,0.00,VWS V14.01,2013-02-24 07:36:00,
2013-02-24 00:41:00,41.1,20.3,29.81,WSW,246,8.0,11.0,43,0.00,,FEW100,0.00,0.00,VWS V14.01,2013-02-24 07:41:00,
2013-02-24 00:46:00,41.2,20.4,29.81,SW,221,9.0,12.0,43,0.00,,FEW100,0.00,0.00,VWS V14.01,2013-02-24 07:46:00,
2013-02-24 00:51:00,41.1,20.3,29.82,WSW,238,5.0,12.0,43,0.00,,FEW100,0.00,0.00,VWS V14.01,2013-02-24 07:51:00,
2013-02-24 00:56:00,41.0,20.8,29.81,SW,235,9.0,9.0,44,0.00,,FEW100,0.00,0.00,VWS V14.01,2013-02-24 07:56:00,
2013-02-24 01:01:00,40.9,20.7,29.81,WSW,248,3.0,8.0,44,0.00,,FEW100,0.00,0.00,VWS V14.01,2013-02-24 08:01:00,
2013-02-24 01:06:00,40.8,20.6,29.81,West,267,0.0,4.0,44,0.00,,FEW100,0.00,0.00,VWS V14.01,2013-02-24 08:06:00,
2013-02-24 01:11:00,40.6,20.4,29.82,WSW,252,1.0,10.0,44,0.00,,FEW100,0.00,0.00,VWS V14.01,2013-02-24 08:11:00,
2013-02-24 01:16:00,40.4,20.2,29.82,WNW,286,3.0,11.0,44,0.00,,FEW100,0.00,0.00,VWS V14.01,2013-02-24 08:16:00,
2013-02-24 01:21:00,40.0,20.4,29.82,West,276,0.0,10.0,45,0.00,,FEW100,0.00,0.00,VWS V14.01,2013-02-24 08:21:00,
2013-02-24 01:26:00,39.7,20.1,29.83,NNW,337,10.0,11.0,45,0.00,,FEW100,0.00,0.00,VWS V14.01,2013-02-24 08:26:00,
2013-02-24 01:31:00,39.3,20.3,29.83,NW,314,2.0,9.0,46,0.00,,FEW100,0.00,0.00,VWS V14.01,2013-02-24 08:31:00,
2013-02-24 01:36:00,38.8,21.8,29.84,NW,306,5.0,13.0,50,0.00,,FEW100,0.00,0.00,VWS V14.01,2013-02-24 08:36:00,
2013-02-24 01:41:00,38.3,22.2,29.84,NW,313,5.0,11.0,52,0.00,,FEW100,0.00,0.00,VWS V14.01,2013-02-24 08:41:00,
2013-02-24 01:46:00,38.0,22.9,29.84,NW,306,4.0,11.0,54,0.00,,FEW100,0.00,0.00,VWS V14.01,2013-02-24 08:46:00,
2013-02-24 01:51:00,37.8,23.1,29.84,WNW,296,6.0,13.0,55,0.00,,FEW100,0.00,0.00,VWS V14.01,2013-02-24 08:51:00,
2013-02-24 01:57:00,37.7,23.4,29.85,WNW,300,2.0,9.0,56,0.00,,FEW100,0.00,0.00,VWS V14.01,2013-02-24 08:57:00,
2013-02-24 02:02:00,37.5,23.2,29.85,WNW,286,3.0,7.0,56,0.00,,SCT130,0.00,0.00,VWS V14.01,2013-02-24 09:02:00,
2013-02-24 02:07:00,37.3,23.5,29.84,NW,315,8.0,10.0,57,0.00,,SCT130,0.00,0.00,VWS V14.01,2013-02-24 09:07:00,
2013-02-24 02:12:00,36.9,23.5,29.85,WNW,302,7.0,11.0,58,0.00,,SCT130,0.00,0.00,VWS V14.01,2013-02-24 09:12:00,
2013-02-24 02:17:00,36.6,24.0,29.84,West,281,6.0,10.0,60,0.00,,SCT130,0.00,0.00,VWS V14.01,2013-02-24 09:17:00,
2013-02-24 02:22:00,36.2,24.1,29.84,NW,306,8.0,12.0,61,0.00,,SCT130,0.00,0.00,VWS V14.01,2013-02-24 09:22:00,
2013-02-24 02:27:00,36.0,24.3,29.84,WNW,296,6.0,10.0,62,0.00,,SCT130,0.00,0.00,VWS V14.01,2013-02-24 09:27:00,
2013-02-24 02:32:00,35.7,24.0,29.84,WNW,303,3.0,11.0,62,0.00,,SCT130,0.00,0.00,VWS V14.01,2013-02-24 09:32:00,
2013-02-24 02:37:00,35.5,23.4,29.84,NW,309,5.0,11.0,61,0.00,,SCT130,0.00,0.00,VWS V14.01,2013-02-24 09:37:00,
2013-02-24 02:42:00,35.3,22.8,29.83,WNW,303,5.0,10.0,60,0.00,,SCT130,0.00,0.00,VWS V14.01,2013-02-24 09:42:00,
2013-02-24 02:47:00,35.2,22.3,29.83,West,272,9.0,14.0,59,0.00,,SCT130,0.00,0.00,VWS V14.01,2013-02-24 09:47:00,
2013-02-24 02:52:00,34.9,22.0,29.83,NW,307,7.0,15.0,59,0.00,,SCT130,0.00,0.00,VWS V14.01,2013-02-24 09:52:00,
2013-02-24 02:57:00,34.7,21.9,29.83,WNW,285,10.0,15.0,59,0.00,,SCT130,0.00,0.00,VWS V14.01,2013-02-24 09:57:00,
2013-02-24 03:02:00,34.6,21.8,29.83,WNW,285,4.0,16.0,59,0.00,,BKN150,0.00,0.00,VWS V14.01,2013-02-24 10:02:00,
2013-02-24 03:07:00,34.5,21.7,29.83,WNW,299,5.0,18.0,59,0.00,,BKN150,0.00,0.00,VWS V14.01,2013-02-24 10:07:00,
2013-02-24 03:12:00,34.4,21.2,29.83,NW,306,9.0,17.0,58,0.00,,BKN150,0.00,0.00,VWS V14.01,2013-02-24 10:12:00,
2013-02-24 03:17:00,34.3,21.1,29.83,WNW,292,5.0,15.0,58,0.00,,BKN150,0.00,0.00,VWS V14.01,2013-02-24 10:17:00,
2013-02-24 03:22:00,34.2,21.0,29.83,NW,314,6.0,14.0,58,0.00,,BKN150,0.00,0.00,VWS V14.01,2013-02-24 10:22:00,
2013-02-24 03:28:00,34.1,20.9,29.83,WNW,296,8.0,13.0,58,0.00,,BKN150,0.00,0.00,VWS V14.01,2013-02-24 10:28:00,
2013-02-24 03:33:00,33.9,20.7,29.83,NW,310,8.0,12.0,58,0.00,,BKN150,0.00,0.00,VWS V14.01,2013-02-24 10:33:00,
2013-02-24 03:38:00,33.8,21.0,29.82,WNW,300,9.0,17.0,59,0.00,,BKN150,0.00,0.00,VWS V14.01,2013-02-24 10:38:00,
2013-02-24 03:43:00,33.6,20.8,29.82,WNW,285,7.0,15.0,59,0.00,,BKN150,0.00,0.00,VWS V14.01,2013-02-24 10:43:00,
2013-02-24 03:48:00,33.4,21.0,29.81,WNW,292,5.0,15.0,60,0.00,,BKN150,0.00,0.00,VWS V14.01,2013-02-24 10:48:00,
2013-02-24 03:53:00,33.2,20.8,29.81,NW,315,11.0,13.0,60,0.00,,BKN150,0.00,0.00,VWS V14.01,2013-02-24 10:53:00,
2013-02-24 03:58:00,33.1,21.1,29.81,West,281,7.0,14.0,61,0.00,,BKN150,0.00,0.00,VWS V14.01,2013-02-24 10:58:00,
2013-02-24 04:03:00,32.9,21.3,29.81,NW,304,5.0,17.0,62,0.00,,OVC150,0.00,0.00,VWS V14.01,2013-02-24 11:03:00,
2013-02-24 04:08:00,32.7,21.5,29.81,WNW,300,6.0,16.0,63,0.00,,OVC150,0.00,0.00,VWS V14.01,2013-02-24 11:08:00,
2013-02-24 04:13:00,32.5,21.7,29.82,NW,307,7.0,18.0,64,0.00,,OVC150,0.00,0.00,VWS V14.01,2013-02-24 11:13:00,
2013-02-24 04:18:00,32.2,20.7,29.82,WNW,294,11.0,18.0,62,0.00,,OVC150,0.00,0.00,VWS V14.01,2013-02-24 11:18:00,
2013-02-24 04:23:00,32.0,20.1,29.82,WNW,282,6.0,14.0,61,0.00,,OVC150,0.00,0.00,VWS V14.01,2013-02-24 11:23:00,
2013-02-24 04:28:00,32.0,20.1,29.82,NW,309,9.0,11.0,61,0.00,,OVC150,0.00,0.00,VWS V14.01,2013-02-24 11:28:00,
2013-02-24 04:33:00,31.6,19.7,29.82,WNW,291,7.0,15.0,61,0.00,,OVC150,0.00,0.00,VWS V14.01,2013-02-24 11:33:00,
2013-02-24 04:38:00,31.5,19.2,29.82,WNW,300,8.0,16.0,60,0.00,,OVC150,0.00,0.00,VWS V14.01,2013-02-24 11:38:00,
2013-02-24 04:43:00,31.3,19.0,29.83,WNW,300,6.0,13.0,60,0.00,,OVC150,0.00,0.00,VWS V14.01,2013-02-24 11:43:00,
2013-02-24 04:48:00,31.2,19.0,29.83,WNW,294,7.0,14.0,60,0.00,,OVC150,0.00,0.00,VWS V14.01,2013-02-24 11:48:00,
2013-02-24 04:53:00,31.1,18.9,29.84,NW,315,7.0,12.0,60,0.00,,OVC150,0.00,0.00,VWS V14.01,2013-02-24 11:53:00,
2013-02-24 04:58:00,31.1,18.9,29.84,WNW,296,3.0,14.0,60,0.00,,OVC150,0.00,0.00,VWS V14.01,2013-02-24 11:58:00,
2013-02-24 05:03:00,31.2,19.0,29.84,NNW,345,5.0,11.0,60,0.00,,OVC150,0.00,0.00,VWS V14.01,2013-02-24 12:03:00,
2013-02-24 05:08:00,31.2,18.5,29.83,WNW,282,8.0,14.0,59,0.00,,OVC150,0.00,0.00,VWS V14.01,2013-02-24 12:08:00,
2013-02-24 05:13:00,31.3,18.6,29.83,WNW,300,2.0,13.0,59,0.00,,OVC150,0.00,0.00,VWS V14.01,2013-02-24 12:13:00,
2013-02-24 05:18:00,31.4,18.7,29.83,West,281,9.0,11.0,59,0.00,,OVC150,0.00,0.00,VWS V14.01,2013-02-24 12:18:00,
2013-02-24 05:23:00,31.5,18.8,29.83,NNW,327,2.0,13.0,59,0.00,,OVC150,0.00,0.00,VWS V14.01,2013-02-24 12:23:00,
2013-02-24 05:28:00,31.5,18.4,29.82,North,9,6.0,10.0,58,0.00,,OVC150,0.00,0.00,VWS V14.01,2013-02-24 12:28:00,
2013-02-24 05:33:00,31.5,18.4,29.82,NNW,333,0.0,9.0,58,0.00,,OVC220,0.00,0.00,VWS V14.01,2013-02-24 12:33:00,
2013-02-24 05:38:00,31.4,18.4,29.82,NNW,333,2.0,4.0,58,0.00,,OVC220,0.00,0.00,VWS V14.01,2013-02-24 12:38:00,
2013-02-24 05:44:00,31.3,18.6,29.82,ENE,76,2.0,5.0,59,0.00,,OVC220,0.00,0.00,VWS V14.01,2013-02-24 12:44:00,
2013-02-24 05:49:00,31.2,18.5,29.82,ENE,76,0.0,3.0,59,0.00,,OVC220,0.00,0.00,VWS V14.01,2013-02-24 12:49:00,
2013-02-24 05:54:00,31.1,18.5,29.82,NNW,340,4.0,5.0,59,0.00,,OVC220,0.00,0.00,VWS V14.01,2013-02-24 12:54:00,
2013-02-24 05:59:00,31.0,18.4,29.82,NNW,340,4.0,7.0,59,0.00,,OVC220,0.00,0.00,VWS V14.01,2013-02-24 12:59:00,
2013-02-24 06:04:00,31.0,18.8,29.83,NNW,340,0.0,4.0,60,0.00,,BKN190,0.00,0.00,VWS V14.01,2013-02-24 13:04:00,
2013-02-24 06:09:00,30.9,18.7,29.84,NNW,340,0.0,5.0,60,0.00,,BKN190,0.00,0.00,VWS V14.01,2013-02-24 13:09:00,
2013-02-24 06:14:00,30.9,18.7,29.84,NNW,340,0.0,3.0,60,0.00,,BKN190,0.00,0.00,VWS V14.01,2013-02-24 13:14:00,
2013-02-24 06:19:00,30.9,18.3,29.83,NNW,340,0.0,2.0,59,0.00,,BKN190,0.00,0.00,VWS V14.01,2013-02-24 13:19:00,
2013-02-24 06:24:00,30.8,18.2,29.83,NNW,340,0.0,3.0,59,0.00,,BKN190,0.00,0.00,VWS V14.01,2013-02-24 13:24:00,
2013-02-24 06:29:00,30.9,18.3,29.83,NW,311,3.0,6.0,59,0.00,,BKN190,0.00,0.00,VWS V14.01,2013-02-24 13:29:00,
2013-02-24 06:34:00,30.9,18.3,29.83,NW,312,0.0,9.0,59,0.00,,BKN190,0.00,0.00,VWS V14.01,2013-02-24 13:34:00,
2013-02-24 06:39:00,30.9,18.3,29.83,NW,315,0.0,0.0,59,0.00,,BKN190,0.00,0.00,VWS V14.01,2013-02-24 13:39:00,
2013-02-24 06:44:00,30.9,18.7,29.83,NW,315,0.0,1.0,60,0.00,,BKN190,0.00,5.00,VWS V14.01,2013-02-24 13:44:00,
2013-02-24 06:49:00,30.9,18.7,29.83,NW,314,2.0,3.0,60,0.00,,BKN190,0.00,5.00,VWS V14.01,2013-02-24 13:49:00,
2013-02-24 06:54:00,30.8,18.6,29.83,NW,311,3.0,3.0,60,0.00,,BKN190,0.00,11.00,VWS V14.01,2013-02-24 13:54:00,
2013-02-24 06:59:00,30.8,18.6,29.83,NW,311,0.0,2.0,60,0.00,,BKN190,0.00,16.00,VWS V14.01,2013-02-24 13:59:00,
2013-02-24 07:04:00,30.8,18.6,29.83,NW,311,0.0,2.0,60,0.00,,OVC190,0.00,25.00,VWS V14.01,2013-02-24 14:04:00,
2013-02-24 07:09:00,30.8,18.6,29.83,NW,311,0.0,0.0,60,0.00,,OVC190,0.00,25.00,VWS V14.01,2013-02-24 14:09:00,
2013-02-24 07:14:00,30.7,18.5,29.83,NW,311,2.0,2.0,60,0.00,,OVC190,0.00,25.00,VWS V14.01,2013-02-24 14:14:00,
2013-02-24 07:19:00,30.7,18.5,29.82,NW,311,0.0,1.0,60,0.00,,OVC190,0.00,28.00,VWS V14.01,2013-02-24 14:19:00,
2013-02-24 07:25:00,30.7,18.9,29.82,NW,311,1.0,1.0,61,0.00,,OVC190,0.00,39.00,VWS V14.01,2013-02-24 14:25:00,
2013-02-24 07:30:00,30.8,18.6,29.83,NW,311,0.0,0.0,60,0.00,,OVC190,0.00,37.00,VWS V14.01,2013-02-24 14:30:00,
2013-02-24 07:35:00,30.9,18.7,29.83,NW,311,0.0,0.0,60,0.00,,OVC190,0.00,51.00,VWS V14.01,2013-02-24 14:35:00,
2013-02-24 07:40:00,31.1,18.9,29.84,NW,311,0.0,2.0,60,0.00,,OVC190,0.00,69.00,VWS V14.01,2013-02-24 14:40:00,
2013-02-24 07:45:00,31.3,18.6,29.84,NW,311,0.0,3.0,59,0.00,,OVC190,0.00,65.00,VWS V14.01,2013-02-24 14:45:00,
2013-02-24 07:50:00,31.6,18.9,29.84,NW,308,4.0,6.0,59,0.00,,OVC190,0.00,49.00,VWS V14.01,2013-02-24 14:50:00,
2013-02-24 07:55:00,31.8,18.7,29.84,NW,313,10.0,12.0,58,0.00,,OVC190,0.00,51.00,VWS V14.01,2013-02-24 14:55:00,
2013-02-24 08:00:00,31.9,18.8,29.84,NW,315,6.0,14.0,58,0.00,,OVC190,0.00,56.00,VWS V14.01,2013-02-24 15:00:00,
2013-02-24 08:05:00,31.9,18.8,29.84,NNW,329,5.0,9.0,58,0.00,,OVC180,0.00,67.00,VWS V14.01,2013-02-24 15:05:00,
2013-02-24 08:11:00,31.9,18.8,29.84,WNW,295,4.0,11.0,58,0.00,,OVC180,0.00,65.00,VWS V14.01,2013-02-24 15:11:00,
2013-02-24 08:16:00,32.0,18.5,29.84,NNW,327,5.0,11.0,57,0.00,,OVC180,0.00,81.00,VWS V14.01,2013-02-24 15:16:00,
2013-02-24 08:21:00,32.1,18.6,29.84,NNW,332,3.0,9.0,57,0.00,,OVC180,0.00,104.00,VWS V14.01,2013-02-24 15:21:00,
2013-02-24 08:26:00,32.3,18.4,29.84,NW,325,11.0,15.0,56,0.00,,OVC180,0.00,121.00,VWS V14.01,2013-02-24 15:26:00,
2013-02-24 08:31:00,32.4,18.0,29.83,NW,316,7.0,14.0,55,0.00,,OVC180,0.00,153.00,VWS V14.01,2013-02-24 15:31:00,
2013-02-24 08:36:00,32.6,17.8,29.83,NNW,333,11.0,11.0,54,0.00,,OVC180,0.00,214.00,VWS V14.01,2013-02-24 15:36:00,
2013-02-24 08:41:00,32.9,17.7,29.83,North,9,6.0,14.0,53,0.00,,OVC180,0.00,216.00,VWS V14.01,2013-02-24 15:41:00,
2013-02-24 08:46:00,33.1,17.4,29.83,NNW,345,7.0,14.0,52,0.00,,OVC180,0.00,200.00,VWS V14.01,2013-02-24 15:46:00,
2013-02-24 08:51:00,33.3,17.6,29.83,NW,317,8.0,12.0,52,0.00,,OVC180,0.00,163.00,VWS V14.01,2013-02-24 15:51:00,
2013-02-24 08:56:00,33.4,17.2,29.83,NW,316,11.0,14.0,51,0.00,,OVC180,0.00,162.00,VWS V14.01,2013-02-24 15:56:00,
2013-02-24 09:01:00,33.4,17.2,29.83,NW,318,8.0,17.0,51,0.00,,OVC065,0.00,174.00,VWS V14.01,2013-02-24 16:01:00,
2013-02-24 09:06:00,33.3,16.7,29.83,NNW,347,7.0,15.0,50,0.00,,OVC065,0.00,169.00,VWS V14.01,2013-02-24 16:06:00,
2013-02-24 09:11:00,33.4,17.2,29.83,North,350,8.0,14.0,51,0.00,,OVC065,0.00,186.00,VWS V14.01,2013-02-24 16:11:00,
2013-02-24 09:17:00,33.5,17.3,29.83,NNW,333,10.0,13.0,51,0.00,,OVC065,0.00,200.00,VWS V14.01,2013-02-24 16:17:00,
2013-02-24 09:22:00,33.6,17.4,29.82,NNW,338,5.0,12.0,51,0.00,,OVC065,0.00,227.00,VWS V14.01,2013-02-24 16:22:00,
2013-02-24 09:27:00,33.9,16.8,29.82,NNW,329,8.0,14.0,49,0.00,,OVC065,0.00,288.00,VWS V14.01,2013-02-24 16:27:00,
2013-02-24 09:32:00,34.3,17.1,29.82,WNW,284,10.0,13.0,49,0.00,,OVC065,0.00,345.00,VWS V14.01,2013-02-24 16:32:00,
2013-02-24 09:37:00,34.8,17.1,29.82,NNW,336,8.0,12.0,48,0.00,,OVC065,0.00,388.00,VWS V14.01,2013-02-24 16:37:00,
2013-02-24 09:42:00,35.4,16.7,29.82,NW,307,8.0,15.0,46,0.00,,OVC065,0.00,418.00,VWS V14.01,2013-02-24 16:42:00,
2013-02-24 09:47:00,35.7,14.9,29.81,NNW,342,8.0,14.0,42,0.00,,OVC065,0.00,520.00,VWS V14.01,2013-02-24 16:47:00,
2013-02-24 09:52:00,36.4,13.8,29.81,NNW,336,10.0,15.0,39,0.00,,OVC065,0.00,408.00,VWS V14.01,2013-02-24 16:52:00,
2013-02-24 09:57:00,36.9,13.1,29.81,NNW,329,7.0,14.0,37,0.00,,OVC065,0.00,348.00,VWS V14.01,2013-02-24 16:57:00,
2013-02-24 10:02:00,37.0,11.9,29.81,NW,319,13.0,15.0,35,0.00,,,0.00,459.00,VWS V14.01,2013-02-24 17:02:00,
2013-02-24 10:07:00,37.1,10.7,29.81,NW,317,7.0,17.0,33,0.00,,,0.00,364.00,VWS V14.01,2013-02-24 17:07:00,
2013-02-24 10:12:00,37.2,10.1,29.81,West,265,12.0,15.0,32,0.00,,,0.00,454.00,VWS V14.01,2013-02-24 17:12:00,
2013-02-24 10:17:00,37.3,10.2,29.81,NW,314,13.0,17.0,32,0.00,,,0.00,454.00,VWS V14.01,2013-02-24 17:17:00,
2013-02-24 10:22:00,37.2,9.4,29.81,NW,304,10.0,20.0,31,0.00,,,0.00,387.00,VWS V14.01,2013-02-24 17:22:00,
2013-02-24 10:27:00,37.3,10.2,29.81,NW,304,9.0,16.0,32,0.00,,,0.00,552.00,VWS V14.01,2013-02-24 17:27:00,
2013-02-24 10:32:00,37.5,9.6,29.80,WNW,294,4.0,14.0,31,0.00,,,0.00,591.00,VWS V14.01,2013-02-24 17:32:00,
2013-02-24 10:37:00,38.5,10.5,29.80,WNW,292,8.0,14.0,31,0.00,,,0.00,529.00,VWS V14.01,2013-02-24 17:37:00,
2013-02-24 10:42:00,38.8,10.8,29.80,NNW,331,9.0,15.0,31,0.00,,,0.00,563.00,VWS V14.01,2013-02-24 17:42:00,
2013-02-24 10:48:00,39.3,11.2,29.80,North,5,9.0,15.0,31,0.00,,,0.00,580.00,VWS V14.01,2013-02-24 17:48:00,
2013-02-24 10:53:00,39.5,12.1,29.80,NW,315,4.0,15.0,32,0.00,,,0.00,420.00,VWS V14.01,2013-02-24 17:53:00,
2013-02-24 10:58:00,39.7,11.6,29.80,NW,319,8.0,14.0,31,0.00,,,0.00,517.00,VWS V14.01,2013-02-24 17:58:00,
2013-02-24 11:03:00,40.1,11.2,29.79,NW,318,3.0,12.0,30,0.00,,BKN060,0.00,476.00,VWS V14.01,2013-02-24 18:03:00,
2013-02-24 11:08:00,40.6,11.6,29.79,NW,319,8.0,14.0,30,0.00,,BKN060,0.00,494.00,VWS V14.01,2013-02-24 18:08:00,
2013-02-24 11:13:00,41.0,11.2,29.79,NW,310,7.0,15.0,29,0.00,,BKN060,0.00,485.00,VWS V14.01,2013-02-24 18:13:00,
2013-02-24 11:18:00,41.0,10.4,29.79,NNW,327,6.0,17.0,28,0.00,,BKN060,0.00,464.00,VWS V14.01,2013-02-24 18:18:00,
2013-02-24 11:23:00,40.6,10.1,29.78,WNW,301,11.0,15.0,28,0.00,,BKN060,0.00,429.00,VWS V14.01,2013-02-24 18:23:00,
2013-02-24 11:28:00,40.6,10.9,29.78,NW,315,3.0,14.0,29,0.00,,BKN060,0.00,431.00,VWS V14.01,2013-02-24 18:28:00,
2013-02-24 11:33:00,41.0,11.2,29.78,NNW,333,6.0,17.0,29,0.00,,BKN060,0.00,313.00,VWS V14.01,2013-02-24 18:33:00,
2013-02-24 11:38:00,41.2,11.4,29.78,NW,304,9.0,13.0,29,0.00,,BKN060,0.00,459.00,VWS V14.01,2013-02-24 18:38:00,
2013-02-24 11:43:00,41.7,12.6,29.77,WNW,302,12.0,16.0,30,0.00,,BKN060,0.00,684.00,VWS V14.01,2013-02-24 18:43:00,
2013-02-24 11:48:00,42.3,13.1,29.77,NW,326,7.0,17.0,30,0.00,,BKN060,0.00,805.00,VWS V14.01,2013-02-24 18:48:00,
2013-02-24 11:53:00,42.7,12.7,29.77,North,355,2.0,14.0,29,0.00,,BKN060,0.00,745.00,VWS V14.01,2013-02-24 18:53:00,
2013-02-24 11:58:00,43.6,13.5,29.76,WNW,300,4.0,15.0,29,0.00,,BKN060,0.00,737.00,VWS V14.01,2013-02-24 18:58:00,
2013-02-24 12:04:00,44.3,14.1,29.77,WNW,290,12.0,15.0,29,0.00,,OVC070,0.00,877.00,VWS V14.01,2013-02-24 19:04:00,
2013-02-24 12:09:00,44.0,13.0,29.77,NW,306,0.0,15.0,28,0.00,,OVC070,0.00,478.00,VWS V14.01,2013-02-24 19:09:00,
2013-02-24 12:14:00,43.9,12.9,29.76,NNW,340,10.0,12.0,28,0.00,,OVC070,0.00,670.00,VWS V14.01,2013-02-24 19:14:00,
2013-02-24 12:19:00,43.8,12.8,29.76,NW,311,6.0,19.0,28,0.00,,OVC070,0.00,628.00,VWS V14.01,2013-02-24 19:19:00,
2013-02-24 12:24:00,43.7,12.8,29.76,NNW,335,10.0,14.0,28,0.00,,OVC070,0.00,657.00,VWS V14.01,2013-02-24 19:24:00,
2013-02-24 12:29:00,44.6,12.7,29.75,NNE,19,10.0,14.0,27,0.00,,OVC070,0.00,671.00,VWS V14.01,2013-02-24 19:29:00,
2013-02-24 12:34:00,44.4,12.5,29.75,WNW,286,3.0,12.0,27,0.00,,OVC070,0.00,744.00,VWS V14.01,2013-02-24 19:34:00,
2013-02-24 12:39:00,45.1,13.1,29.75,WNW,298,10.0,10.0,27,0.00,,OVC070,0.00,758.00,VWS V14.01,2013-02-24 19:39:00,
2013-02-24 12:44:00,45.2,11.5,29.75,NW,305,9.0,9.0,25,0.00,,OVC070,0.00,705.00,VWS V14.01,2013-02-24 19:44:00,
2013-02-24 12:49:00,44.9,11.2,29.75,NW,321,6.0,17.0,25,0.00,,OVC070,0.00,758.00,VWS V14.01,2013-02-24 19:49:00,
2013-02-24 12:54:00,45.1,11.4,29.74,NW,309,10.0,16.0,25,0.00,,OVC070,0.00,772.00,VWS V14.01,2013-02-24 19:54:00,
2013-02-24 12:59:00,45.6,10.9,29.74,West,278,8.0,16.0,24,0.00,,OVC070,0.00,775.00,VWS V14.01,2013-02-24 19:59:00,
2013-02-24 13:04:00,45.5,9.9,29.74,NW,309,7.0,19.0,23,0.00,,OVC070,0.00,816.00,VWS V14.01,2013-02-24 20:04:00,
2013-02-24 13:09:00,45.3,9.7,29.74,NW,316,9.0,9.0,23,0.00,,OVC070,0.00,793.00,VWS V14.01,2013-02-24 20:09:00,
2013-02-24 13:14:00,46.2,9.5,29.74,West,275,9.0,9.0,22,0.00,,OVC070,0.00,756.00,VWS V14.01,2013-02-24 20:14:00,
2013-02-24 13:19:00,46.1,9.4,29.74,WNW,298,15.0,15.0,22,0.00,,OVC070,0.00,745.00,VWS V14.01,2013-02-24 20:19:00,
2013-02-24 13:24:00,46.0,8.3,29.73,WNW,290,5.0,10.0,21,0.00,,OVC070,0.00,796.00,VWS V14.01,2013-02-24 20:24:00,
2013-02-24 13:29:00,45.8,8.1,29.74,WNW,291,15.0,15.0,21,0.00,,OVC070,0.00,796.00,VWS V14.01,2013-02-24 20:29:00,
2013-02-24 13:34:00,45.1,8.5,29.74,WNW,303,8.0,18.0,22,0.00,,OVC070,0.00,737.00,VWS V14.01,2013-02-24 20:34:00,
2013-02-24 13:39:00,44.9,9.4,29.73,WNW,296,11.0,21.0,23,0.00,,OVC070,0.00,504.00,VWS V14.01,2013-02-24 20:39:00,
2013-02-24 13:44:00,44.5,9.0,29.74,NW,322,7.0,20.0,23,0.00,,OVC070,0.00,343.00,VWS V14.01,2013-02-24 20:44:00,
2013-02-24 13:49:00,43.8,9.4,29.73,WNW,291,10.0,22.0,24,0.00,,OVC070,0.00,557.00,VWS V14.01,2013-02-24 20:49:00,
2013-02-24 13:55:00,43.7,9.3,29.73,NNW,333,23.0,23.0,24,0.00,,OVC070,0.00,729.00,VWS V14.01,2013-02-24 20:55:00,
2013-02-24 14:00:00,43.8,9.4,29.73,NW,308,15.0,21.0,24,0.00,,OVC070,0.00,587.00,VWS V14.01,2013-02-24 21:00:00,
2013-02-24 14:05:00,43.7,9.3,29.73,WNW,290,8.0,23.0,24,0.00,,OVC070,0.00,668.00,VWS V14.01,2013-02-24 21:05:00,
2013-02-24 14:10:00,43.8,9.4,29.73,NW,324,12.0,18.0,24,0.00,,OVC070,0.00,670.00,VWS V14.01,2013-02-24 21:10:00,
2013-02-24 14:15:00,43.8,9.4,29.73,West,279,11.0,17.0,24,0.00,,OVC070,0.00,624.00,VWS V14.01,2013-02-24 21:15:00,
2013-02-24 14:20:00,43.7,9.3,29.73,WNW,295,14.0,20.0,24,0.00,,OVC070,0.00,436.00,VWS V14.01,2013-02-24 21:20:00,
2013-02-24 14:25:00,43.6,10.1,29.73,NNW,334,12.0,17.0,25,0.00,,OVC070,0.00,417.00,VWS V14.01,2013-02-24 21:25:00,
2013-02-24 14:30:00,43.4,9.9,29.73,NNW,342,10.0,15.0,25,0.00,,BKN070,0.00,432.00,VWS V14.01,2013-02-24 21:30:00,
2013-02-24 14:35:00,43.2,9.8,29.73,NW,311,18.0,22.0,25,0.00,,BKN070,0.00,338.00,VWS V14.01,2013-02-24 21:35:00,
2013-02-24 14:40:00,42.7,9.3,29.73,WNW,290,10.0,20.0,25,0.00,,BKN070,0.00,392.00,VWS V14.01,2013-02-24 21:40:00,
2013-02-24 14:45:00,42.5,10.1,29.73,NW,309,17.0,22.0,26,0.00,,BKN070,0.00,480.00,VWS V14.01,2013-02-24 21:45:00,
2013-02-24 14:50:00,42.7,10.2,29.73,WNW,302,12.0,21.0,26,0.00,,BKN070,0.00,564.00,VWS V14.01,2013-02-24 21:50:00,
2013-02-24 14:55:00,43.3,9.9,29.73,WNW,302,7.0,19.0,25,0.00,,BKN070,0.00,497.00,VWS V14.01,2013-02-24 21:55:00,
2013-02-24 15:00:00,43.6,9.2,29.74,WNW,282,15.0,20.0,24,0.00,,BKN085,0.00,492.00,VWS V14.01,2013-02-24 22:00:00,
2013-02-24 15:05:00,44.2,9.7,29.74,West,271,17.0,20.0,24,0.00,,BKN085,0.00,534.00,VWS V14.01,2013-02-24 22:05:00,
2013-02-24 15:10:00,44.2,8.8,29.74,NW,311,12.0,21.0,23,0.00,,BKN085,0.00,561.00,VWS V14.01,2013-02-24 22:10:00,
2013-02-24 15:15:00,43.6,8.3,29.74,WNW,296,19.0,21.0,23,0.00,,BKN085,0.00,547.00,VWS V14.01,2013-02-24 22:15:00,
2013-02-24 15:21:00,43.2,7.9,29.75,West,274,9.0,21.0,23,0.00,,BKN085,0.00,186.00,VWS V14.01,2013-02-24 22:21:00,
2013-02-24 15:26:00,42.3,6.2,29.75,NW,319,12.0,19.0,22,0.00,,BKN085,0.00,199.00,VWS V14.01,2013-02-24 22:26:00,
2013-02-24 15:31:00,41.6,5.6,29.75,NNW,346,16.0,24.0,22,0.00,,BKN085,0.00,179.00,VWS V14.01,2013-02-24 22:31:00,
2013-02-24 15:36:00,40.9,5.0,29.75,WNW,299,11.0,16.0,22,0.00,,BKN085,0.00,211.00,VWS V14.01,2013-02-24 22:36:00,
2013-02-24 15:41:00,40.6,5.7,29.75,NW,306,16.0,22.0,23,0.00,,BKN085,0.00,163.00,VWS V14.01,2013-02-24 22:41:00,
2013-02-24 15:46:00,40.1,5.3,29.75,NW,306,11.0,23.0,23,0.00,,BKN085,0.00,127.00,VWS V14.01,2013-02-24 22:46:00,
2013-02-24 15:51:00,39.7,4.9,29.75,WNW,283,10.0,19.0,23,0.00,,BKN085,0.00,130.00,VWS V14.01,2013-02-24 22:51:00,
2013-02-24 15:56:00,39.5,5.7,29.75,WNW,296,9.0,21.0,24,0.00,,BKN085,0.00,118.00,VWS V14.01,2013-02-24 22:56:00,
2013-02-24 16:01:00,39.3,5.5,29.75,WNW,293,8.0,26.0,24,0.00,,BKN130,0.00,111.00,VWS V14.01,2013-02-24 23:01:00,
2013-02-24 16:06:00,39.1,6.3,29.75,WNW,301,9.0,27.0,25,0.00,,BKN130,0.00,113.00,VWS V14.01,2013-02-24 23:06:00,
2013-02-24 16:11:00,38.8,6.0,29.75,West,279,7.0,22.0,25,0.00,,BKN130,0.00,118.00,VWS V14.01,2013-02-24 23:11:00,
2013-02-24 16:16:00,38.6,6.7,29.75,WNW,288,14.0,25.0,26,0.00,,BKN130,0.00,130.00,VWS V14.01,2013-02-24 23:16:00,
2013-02-24 16:21:00,38.6,6.7,29.76,West,275,7.0,24.0,26,0.00,,BKN130,0.00,148.00,VWS V14.01,2013-02-24 23:21:00,
2013-02-24 16:26:00,38.5,7.4,29.76,WNW,298,15.0,27.0,27,0.00,,BKN130,0.00,132.00,VWS V14.01,2013-02-24 23:26:00,
2013-02-24 16:31:00,38.3,7.3,29.76,WNW,290,19.0,28.0,27,0.00,,BKN130,0.00,113.00,VWS V14.01,2013-02-24 23:31:00,
2013-02-24 16:36:00,38.1,6.3,29.77,WNW,288,18.0,29.0,26,0.00,,BKN130,0.00,95.00,VWS V14.01,2013-02-24 23:36:00,
2013-02-24 16:41:00,38.1,6.3,29.77,WNW,298,17.0,23.0,26,0.00,,BKN130,0.00,86.00,VWS V14.01,2013-02-24 23:41:00,
2013-02-24 16:46:00,38.0,5.3,29.77,NW,319,13.0,22.0,25,0.00,,BKN130,0.00,81.00,VWS V14.01,2013-02-24 23:46:00,
2013-02-24 16:51:00,38.0,5.3,29.77,NNW,336,12.0,22.0,25,0.00,,BKN130,0.00,76.00,VWS V14.01,2013-02-24 23:51:00,
2013-02-24 16:57:00,38.0,5.3,29.77,WNW,299,18.0,22.0,25,0.00,,BKN130,0.00,70.00,VWS V14.01,2013-02-24 23:57:00,
2013-02-24 17:02:00,37.9,4.3,29.77,NW,313,13.0,28.0,24,0.00,,BKN130,0.00,70.00,VWS V14.01,2013-02-25 00:02:00,
2013-02-24 17:07:00,37.8,4.3,29.77,NW,311,19.0,20.0,24,0.00,,BKN130,0.00,70.00,VWS V14.01,2013-02-25 00:07:00,
2013-02-24 17:12:00,37.7,5.1,29.78,West,263,8.0,26.0,25,0.00,,BKN130,0.00,67.00,VWS V14.01,2013-02-25 00:12:00,
2013-02-24 17:17:00,37.7,5.9,29.78,WNW,286,13.0,24.0,26,0.00,,BKN130,0.00,63.00,VWS V14.01,2013-02-25 00:17:00,
2013-02-24 17:22:00,37.5,5.8,29.78,NW,306,17.0,24.0,26,0.00,,BKN130,0.00,49.00,VWS V14.01,2013-02-25 00:22:00,
2013-02-24 17:27:00,37.4,5.7,29.78,WNW,298,12.0,20.0,26,0.00,,BKN130,0.00,35.00,VWS V14.01,2013-02-25 00:27:00,
2013-02-24 17:32:00,37.4,5.7,29.78,NW,313,12.0,22.0,26,0.00,,BKN130,0.00,23.00,VWS V14.01,2013-02-25 00:32:00,
2013-02-24 17:37:00,37.3,4.7,29.78,WNW,296,11.0,20.0,25,0.00,,BKN130,0.00,16.00,VWS V14.01,2013-02-25 00:37:00,
2013-02-24 17:42:00,37.1,4.6,29.79,West,275,9.0,24.0,25,0.00,,BKN130,0.00,11.00,VWS V14.01,2013-02-25 00:42:00,
2013-02-24 17:47:00,37.0,5.3,29.79,WNW,302,14.0,23.0,26,0.00,,BKN130,0.00,5.00,VWS V14.01,2013-02-25 00:47:00,
2013-02-24 17:52:00,36.9,4.4,29.79,West,272,8.0,24.0,25,0.00,,BKN130,0.00,0.00,VWS V14.01,2013-02-25 00:52:00,
2013-02-24 17:57:00,36.7,4.2,29.80,West,263,11.0,23.0,25,0.00,,BKN130,0.00,0.00,VWS V14.01,2013-02-25 00:57:00,
2013-02-24 18:02:00,36.6,5.0,29.80,WNW,288,7.0,20.0,26,0.00,,BKN220,0.00,0.00,VWS V14.01,2013-02-25 01:02:00,
2013-02-24 18:07:00,36.5,5.7,29.79,NW,319,16.0,26.0,27,0.00,,BKN220,0.00,0.00,VWS V14.01,2013-02-25 01:07:00,
2013-02-24 18:12:00,36.4,4.8,29.80,WNW,288,12.0,22.0,26,0.00,,BKN220,0.00,0.00,VWS V14.01,2013-02-25 01:12:00,
2013-02-24 18:17:00,36.4,4.8,29.80,WNW,295,12.0,17.0,26,0.00,,BKN220,0.00,0.00,VWS V14.01,2013-02-25 01:17:00,
2013-02-24 18:22:00,36.3,5.5,29.80,West,281,12.0,17.0,27,0.00,,BKN220,0.00,0.00,VWS V14.01,2013-02-25 01:22:00,
2013-02-24 18:27:00,36.3,4.7,29.81,West,273,10.0,20.0,26,0.00,,BKN220,0.00,0.00,VWS V14.01,2013-02-25 01:27:00,
2013-02-24 18:32:00,36.2,5.4,29.81,NW,317,27.0,27.0,27,0.00,,BKN220,0.00,0.00,VWS V14.01,2013-02-25 01:32:00,
2013-02-24 18:37:00,36.1,5.4,29.81,WNW,298,13.0,27.0,27,0.00,,BKN220,0.00,0.00,VWS V14.01,2013-02-25 01:37:00,
2013-02-24 18:43:00,36.1,4.5,29.81,WNW,292,7.0,25.0,26,0.00,,BKN220,0.00,0.00,VWS V14.01,2013-02-25 01:43:00,
2013-02-24 18:48:00,36.1,4.5,29.82,NNW,327,14.0,24.0,26,0.00,,BKN220,0.00,0.00,VWS V14.01,2013-02-25 01:48:00,
2013-02-24 18:53:00,36.1,3.7,29.82,WNW,282,6.0,23.0,25,0.00,,BKN220,0.00,0.00,VWS V14.01,2013-02-25 01:53:00,
2013-02-24 18:58:00,36.1,4.5,29.82,NW,304,11.0,21.0,26,0.00,,BKN220,0.00,0.00,VWS V14.01,2013-02-25 01:58:00,
2013-02-24 19:03:00,36.1,4.5,29.82,WSW,253,5.0,25.0,26,0.00,,BKN100,0.00,0.00,VWS V14.01,2013-02-25 02:03:00,
2013-02-24 19:08:00,36.0,4.4,29.82,NW,313,10.0,17.0,26,0.00,,BKN100,0.00,0.00,VWS V14.01,2013-02-25 02:08:00,
2013-02-24 19:13:00,36.0,4.4,29.83,NNW,344,19.0,25.0,26,0.00,,BKN100,0.00,0.00,VWS V14.01,2013-02-25 02:13:00,
2013-02-24 19:18:00,35.9,4.4,29.83,WNW,298,11.0,25.0,26,0.00,,BKN100,0.00,0.00,VWS V14.01,2013-02-25 02:18:00,
2013-02-24 19:23:00,35.9,4.4,29.84,NW,304,10.0,20.0,26,0.00,,BKN100,0.00,0.00,VWS V14.01,2013-02-25 02:23:00,
2013-02-24 19:28:00,35.9,5.2,29.84,NW,325,12.0,17.0,27,0.00,,BKN100,0.00,0.00,VWS V14.01,2013-02-25 02:28:00,
2013-02-24 19:33:00,35.8,6.7,29.85,NNW,338,9.0,24.0,29,0.00,,BKN100,0.00,0.00,VWS V14.01,2013-02-25 02:33:00,
2013-02-24 19:38:00,35.5,9.3,29.85,North,355,11.0,25.0,33,0.00,,BKN100,0.00,0.00,VWS V14.01,2013-02-25 02:38:00,
2013-02-24 19:43:00,35.1,11.5,29.85,NW,313,11.0,23.0,37,0.00,,BKN100,0.00,0.00,VWS V14.01,2013-02-25 02:43:00,
2013-02-24 19:48:00,34.9,11.9,29.85,WNW,297,5.0,19.0,38,0.00,,BKN100,0.00,0.00,VWS V14.01,2013-02-25 02:48:00,
2013-02-24 19:53:00,34.6,12.2,29.85,NW,319,8.0,24.0,39,0.00,,BKN100,0.00,0.00,VWS V14.01,2013-02-25 02:53:00,
2013-02-24 19:58:00,34.4,13.1,29.86,NNW,333,9.0,24.0,41,0.00,,BKN100,0.00,0.00,VWS V14.01,2013-02-25 02:58:00,
2013-02-24 20:03:00,34.3,12.5,29.86,NW,313,15.0,23.0,40,0.00,,BKN070,0.00,0.00,VWS V14.01,2013-02-25 03:03:00,
2013-02-24 20:08:00,33.9,14.8,29.86,NW,316,12.0,23.0,45,0.00,,BKN070,0.00,0.00,VWS V14.01,2013-02-25 03:08:00,
2013-02-24 20:13:00,33.5,16.4,29.87,NW,311,10.0,23.0,49,0.00,,BKN070,0.00,0.00,VWS V14.01,2013-02-25 03:13:00,
2013-02-24 20:18:00,32.8,17.1,29.87,WNW,290,11.0,20.0,52,0.00,,BKN070,0.00,0.00,VWS V14.01,2013-02-25 03:18:00,
2013-02-24 20:23:00,32.4,16.8,29.87,NW,322,18.0,21.0,52,0.00,,BKN070,0.00,0.00,VWS V14.01,2013-02-25 03:23:00,
2013-02-24 20:28:00,32.5,15.9,29.86,NW,310,10.0,19.0,50,0.00,,BKN070,0.00,0.00,VWS V14.01,2013-02-25 03:28:00,
2013-02-24 20:33:00,32.5,14.5,29.87,NNW,329,13.0,22.0,47,0.00,,BKN070,0.00,0.00,VWS V14.01,2013-02-25 03:33:00,
2013-02-24 20:38:00,32.9,12.9,29.87,NNW,348,10.0,20.0,43,0.00,,BKN070,0.00,0.00,VWS V14.01,2013-02-25 03:38:00,
2013-02-24 20:43:00,33.1,13.1,29.87,NW,322,12.0,21.0,43,0.00,,BKN070,0.00,0.00,VWS V14.01,2013-02-25 03:43:00,
2013-02-24 20:48:00,33.2,13.7,29.87,WNW,294,17.0,25.0,44,0.00,,BKN070,0.00,0.00,VWS V14.01,2013-02-25 03:48:00,
2013-02-24 20:53:00,33.2,13.1,29.87,NW,306,17.0,20.0,43,0.00,,BKN070,0.00,0.00,VWS V14.01,2013-02-25 03:53:00,
2013-02-24 20:58:00,33.3,12.2,29.88,WNW,300,8.0,17.0,41,0.00,,BKN070,0.00,0.00,VWS V14.01,2013-02-25 03:58:00,
2013-02-24 21:03:00,33.5,11.2,29.88,NW,311,4.0,15.0,39,0.00,,,0.00,0.00,VWS V14.01,2013-02-25 04:03:00,
2013-02-24 21:08:00,33.7,10.8,29.88,NW,321,4.0,15.0,38,0.00,,,0.00,0.00,VWS V14.01,2013-02-25 04:08:00,
2013-02-24 21:13:00,34.0,9.9,29.88,NNW,327,6.0,19.0,36,0.00,,,0.00,0.00,VWS V14.01,2013-02-25 04:13:00,
2013-02-24 21:18:00,34.1,10.0,29.88,NNW,334,8.0,16.0,36,0.00,,,0.00,0.00,VWS V14.01,2013-02-25 04:18:00,
2013-02-24 21:23:00,34.3,11.9,29.89,WNW,297,15.0,24.0,39,0.00,,,0.00,0.00,VWS V14.01,2013-02-25 04:23:00,
2013-02-24 21:28:00,34.1,14.0,29.89,NNW,329,10.0,23.0,43,0.00,,,0.00,0.00,VWS V14.01,2013-02-25 04:28:00,
2013-02-24 21:33:00,33.9,14.8,29.90,North,350,8.0,19.0,45,0.00,,,0.00,0.00,VWS V14.01,2013-02-25 04:33:00,
2013-02-24 21:39:00,33.6,17.0,29.90,NW,319,7.0,15.0,50,0.00,,,0.00,0.00,VWS V14.01,2013-02-25 04:39:00,
2013-02-24 21:43:00,33.3,17.6,29.90,NNE,16,9.0,13.0,52,0.00,,,0.00,0.00,VWS V14.01,2013-02-25 04:43:00,
2013-02-24 21:49:00,32.9,19.4,29.90,NW,320,11.0,23.0,57,0.00,,,0.00,0.00,VWS V14.01,2013-02-25 04:49:00,
2013-02-24 21:54:00,32.5,19.0,29.90,NW,321,17.0,18.0,57,0.00,,,0.00,0.00,VWS V14.01,2013-02-25 04:54:00,
2013-02-24 21:59:00,32.3,20.4,29.91,NNW,339,9.0,17.0,61,0.00,,,0.00,0.00,VWS V14.01,2013-02-25 04:59:00,
2013-02-24 22:00:00,32.3,20.8,29.91,NNW,330,6.0,12.0,62,0.00,,,0.00,0.00,VWS V14.01,2013-02-25 05:00:00,
2013-02-24 22:05:00,31.8,21.8,29.91,NW,324,16.0,17.0,66,0.00,,OVC060,0.00,0.00,VWS V14.01,2013-02-25 05:05:00,
2013-02-24 22:10:00,31.6,21.6,29.91,NNW,348,4.0,10.0,66,0.00,,OVC060,0.00,0.00,VWS V14.01,2013-02-25 05:10:00,
2013-02-24 22:15:00,31.6,21.2,29.91,NW,319,7.0,15.0,65,0.00,,OVC060,0.00,0.00,VWS V14.01,2013-02-25 05:15:00,
2013-02-24 22:20:00,31.7,21.7,29.91,NNW,338,8.0,11.0,66,0.00,,OVC060,0.00,0.00,VWS V14.01,2013-02-25 05:20:00,
2013-02-24 22:25:00,31.7,22.0,29.91,NNW,344,5.0,13.0,67,0.00,,OVC060,0.00,0.00,VWS V14.01,2013-02-25 05:25:00,
2013-02-24 22:30:00,31.6,21.9,29.92,NNW,333,2.0,11.0,67,0.00,,OVC060,0.00,0.00,VWS V14.01,2013-02-25 05:30:00,
2013-02-24 22:35:00,31.5,22.2,29.91,NNE,29,0.0,10.0,68,0.00,,OVC060,0.00,0.00,VWS V14.01,2013-02-25 05:35:00,
2013-02-24 22:40:00,31.5,22.9,29.91,NNE,32,2.0,3.0,70,0.00,,OVC060,0.00,0.00,VWS V14.01,2013-02-25 05:40:00,
2013-02-24 22:46:00,31.4,22.8,29.92,NNE,32,1.0,4.0,70,0.00,,OVC060,0.00,0.00,VWS V14.01,2013-02-25 05:46:00,
2013-02-24 22:51:00,31.3,23.0,29.92,NE,47,1.0,5.0,71,0.00,,OVC060,0.00,0.00,VWS V14.01,2013-02-25 05:51:00,
2013-02-24 22:56:00,31.1,23.5,29.92,NE,54,1.0,4.0,73,0.00,,OVC060,0.00,0.00,VWS V14.01,2013-02-25 05:56:00,
2013-02-24 23:01:00,30.9,23.9,29.92,NE,55,0.0,0.0,75,0.00,,,0.00,0.00,VWS V14.01,2013-02-25 06:01:00,
2013-02-24 23:06:00,30.7,23.7,29.92,NE,55,1.0,3.0,75,0.00,,,0.00,0.00,VWS V14.01,2013-02-25 06:06:00,
2013-02-24 23:11:00,30.6,24.0,29.92,ENE,68,0.0,5.0,76,0.00,,,0.00,0.00,VWS V14.01,2013-02-25 06:11:00,
2013-02-24 23:16:00,30.5,23.9,29.92,NE,36,0.0,4.0,76,0.00,,,0.00,0.00,VWS V14.01,2013-02-25 06:16:00,
2013-02-24 23:21:00,30.5,22.6,29.92,North,351,10.0,10.0,72,0.00,,,0.00,0.00,VWS V14.01,2013-02-25 06:21:00,
2013-02-24 23:26:00,30.9,21.6,29.92,NNW,340,5.0,8.0,68,0.00,,,0.00,0.00,VWS V14.01,2013-02-25 06:26:00,
2013-02-24 23:31:00,31.1,20.7,29.93,NNW,342,7.0,9.0,65,0.00,,,0.00,0.00,VWS V14.01,2013-02-25 06:31:00,
2013-02-24 23:36:00,31.4,20.3,29.93,NW,304,2.0,5.0,63,0.00,,,0.00,0.00,VWS V14.01,2013-02-25 06:36:00,
2013-02-24 23:41:00,31.6,19.7,29.93,NW,321,0.0,5.0,61,0.00,,,0.00,0.00,VWS V14.01,2013-02-25 06:41:00,
2013-02-24 23:46:00,31.8,19.5,29.93,NW,319,5.0,9.0,60,0.00,,,0.00,0.00,VWS V14.01,2013-02-25 06:46:00,
2013-02-24 23:51:00,32.1,19.0,29.93,NNW,338,5.0,16.0,58,0.00,,,0.00,0.00,VWS V14.01,2013-02-25 06:51:00,
2013-02-24 23:56:00,32.4,18.5,29.93,NW,305,5.0,9.0,56,0.00,,,0.00,0.00,VWS V14.01,2013-02-25 06:56:00,